createdAt,value
2023-01-29T00:02:24.187Z,32.04
2023-01-29T00:04:52.232Z,31.85
2023-01-29T00:07:24.979Z,31.80
2023-01-29T00:09:53.404Z,31.53
2023-01-29T00:12:21.213Z,31.53
2023-01-29T00:14:51.978Z,31.42
2023-01-29T00:17:19.855Z,31.55
2023-01-29T00:19:47.657Z,31.46
2023-01-29T00:22:15.464Z,31.92
2023-01-29T00:24:44.543Z,32.31
2023-01-29T00:27:12.357Z,32.26
2023-01-29T00:29:40.109Z,32.34
2023-01-29T00:32:08.020Z,32.65
2023-01-29T00:34:38.091Z,32.27
2023-01-29T00:37:09.083Z,32.60
2023-01-29T00:39:47.904Z,32.57
2023-01-29T00:42:34.879Z,32.15
2023-01-29T00:45:02.673Z,31.88
2023-01-29T00:47:36.720Z,32.13
2023-01-29T00:50:10.913Z,32.13
2023-01-29T00:52:43.691Z,32.26
2023-01-29T00:55:12.291Z,31.94
2023-01-29T00:57:40.457Z,32.08
2023-01-29T01:00:11.830Z,32.24
2023-01-29T01:02:58.046Z,32.21
2023-01-29T01:05:27.966Z,32.31
2023-01-29T01:07:58.384Z,32.16
2023-01-29T01:10:32.176Z,32.48
2023-01-29T01:13:06.040Z,32.25
2023-01-29T01:15:39.671Z,32.75
2023-01-29T01:18:07.729Z,32.84
2023-01-29T01:20:36.649Z,33.03
2023-01-29T01:23:05.258Z,32.98
2023-01-29T01:25:33.286Z,32.67
2023-01-29T01:28:01.590Z,32.81
2023-01-29T01:30:29.397Z,32.47
2023-01-29T01:32:57.526Z,32.58
2023-01-29T01:35:25.352Z,32.59
2023-01-29T01:37:53.183Z,32.43
2023-01-29T01:40:23.053Z,32.39
2023-01-29T01:42:54.125Z,31.99
2023-01-29T01:45:34.398Z,31.96
2023-01-29T01:48:14.415Z,32.08
2023-01-29T01:50:49.581Z,31.93
2023-01-29T01:53:27.413Z,32.36
2023-01-29T01:56:09.532Z,31.73
2023-01-29T01:58:59.225Z,32.08
2023-01-29T02:01:30.800Z,31.92
2023-01-29T02:04:24.458Z,31.91
2023-01-29T02:07:12.895Z,32.00
2023-01-29T02:09:59.350Z,31.93
2023-01-29T02:12:31.518Z,31.86
2023-01-29T02:15:00.635Z,31.55
2023-01-29T02:17:28.824Z,31.77
2023-01-29T02:20:24.507Z,31.98
2023-01-29T02:22:59.465Z,31.71
2023-01-29T02:25:45.975Z,31.60
2023-01-29T02:28:21.870Z,31.99
2023-01-29T02:30:58.898Z,32.28
2023-01-29T02:33:46.948Z,32.03
2023-01-29T02:36:37.083Z,32.02
2023-01-29T02:39:17.159Z,32.01
2023-01-29T02:41:56.845Z,31.73
2023-01-29T02:44:38.439Z,31.83
2023-01-29T02:47:17.328Z,32.04
2023-01-29T02:49:50.562Z,31.80
2023-01-29T02:52:20.181Z,32.07
2023-01-29T02:54:59.977Z,31.88
2023-01-29T02:57:33.169Z,32.10
2023-01-29T03:00:05.038Z,32.07
2023-01-29T03:02:39.297Z,32.07
2023-01-29T03:05:13.029Z,32.22
2023-01-29T03:07:46.715Z,32.38
2023-01-29T03:10:32.040Z,31.98
2023-01-29T03:13:10.037Z,32.02
2023-01-29T03:15:47.524Z,32.10
2023-01-29T03:18:30.659Z,32.53
2023-01-29T03:21:27.780Z,32.20
2023-01-29T03:24:16.833Z,32.10
2023-01-29T03:27:03.790Z,31.92
2023-01-29T03:29:57.141Z,31.78
2023-01-29T03:32:31.257Z,32.04
2023-01-29T03:35:04.199Z,31.52
2023-01-29T03:37:42.052Z,32.03
2023-01-29T03:40:10.682Z,32.05
2023-01-29T03:42:59.775Z,32.19
2023-01-29T03:45:43.028Z,31.98
2023-01-29T03:48:25.782Z,32.29
2023-01-29T03:51:17.419Z,32.74
2023-01-29T03:53:56.019Z,32.39
2023-01-29T03:56:48.237Z,32.72
2023-01-29T03:59:20.299Z,32.10
2023-01-29T04:02:28.268Z,32.40
2023-01-29T04:05:03.468Z,32.41
2023-01-29T04:07:34.981Z,32.15
2023-01-29T04:10:11.316Z,32.12
2023-01-29T04:12:49.736Z,31.99
2023-01-29T04:15:19.141Z,32.32
2023-01-29T04:17:54.528Z,31.98
2023-01-29T04:20:36.189Z,32.03
2023-01-29T04:23:07.449Z,31.77
2023-01-29T04:25:47.735Z,31.91
2023-01-29T04:28:28.643Z,31.50
2023-01-29T04:31:08.851Z,31.84
2023-01-29T04:34:05.097Z,31.96
2023-01-29T04:36:51.057Z,32.13
2023-01-29T04:39:27.027Z,32.08
2023-01-29T04:41:57.660Z,32.00
2023-01-29T04:44:45.373Z,31.99
2023-01-29T04:47:34.912Z,31.55
2023-01-29T04:50:15.467Z,31.71
2023-01-29T04:53:04.897Z,31.89
2023-01-29T04:55:40.597Z,31.66
2023-01-29T04:58:41.747Z,31.57
2023-01-29T05:01:15.155Z,32.00
2023-01-29T05:03:48.030Z,31.71
2023-01-29T05:06:18.406Z,31.55
2023-01-29T05:08:49.455Z,31.15
2023-01-29T05:11:18.821Z,30.76
2023-01-29T05:13:49.379Z,31.09
2023-01-29T05:16:24.003Z,31.29
2023-01-29T05:18:52.291Z,31.39
2023-01-29T05:21:23.547Z,31.30
2023-01-29T05:24:12.529Z,31.50
2023-01-29T05:27:00.986Z,31.40
2023-01-29T05:29:28.895Z,31.18
2023-01-29T05:31:57.061Z,31.31
2023-01-29T05:34:25.389Z,30.88
2023-01-29T05:36:54.466Z,30.88
2023-01-29T05:39:22.206Z,31.05
2023-01-29T05:41:49.934Z,31.38
2023-01-29T05:44:17.799Z,31.58
2023-01-29T05:46:46.369Z,31.17
2023-01-29T05:49:14.144Z,31.31
2023-01-29T05:51:41.979Z,31.27
2023-01-29T05:54:14.629Z,31.62
2023-01-29T05:56:42.501Z,31.47
2023-01-29T05:59:10.734Z,30.60
2023-01-29T06:01:38.475Z,30.62
2023-01-29T06:04:06.354Z,30.62
2023-01-29T06:06:34.158Z,30.70
2023-01-29T06:09:01.788Z,31.09
2023-01-29T06:11:29.535Z,31.37
2023-01-29T06:13:58.078Z,31.18
2023-01-29T06:16:25.780Z,30.66
2023-01-29T06:18:53.529Z,31.14
2023-01-29T06:21:21.311Z,31.04
2023-01-29T06:23:49.144Z,31.30
2023-01-29T06:26:17.112Z,31.14
2023-01-29T06:28:46.307Z,30.73
2023-01-29T06:31:36.877Z,30.75
2023-01-29T06:34:01.758Z,31.03
2023-01-29T06:36:29.465Z,31.34
2023-01-29T06:38:59.540Z,31.30
2023-01-29T06:41:28.771Z,31.48
2023-01-29T06:43:56.549Z,31.68
2023-01-29T06:46:24.392Z,31.72
2023-01-29T06:48:52.362Z,31.16
2023-01-29T06:51:21.499Z,30.75
2023-01-29T06:53:49.515Z,31.31
2023-01-29T06:56:17.359Z,31.42
2023-01-29T06:58:45.182Z,31.58
2023-01-29T07:01:25.364Z,32.05
2023-01-29T07:04:01.436Z,32.54
2023-01-29T07:06:29.911Z,32.86
2023-01-29T07:08:57.707Z,31.94
2023-01-29T07:11:25.655Z,30.99
2023-01-29T07:13:53.696Z,30.76
2023-01-29T07:16:21.454Z,31.82
2023-01-29T07:18:49.517Z,33.20
2023-01-29T07:21:17.736Z,32.93
2023-01-29T07:23:45.588Z,32.28
2023-01-29T07:26:13.699Z,32.85
2023-01-29T07:28:42.810Z,33.31
2023-01-29T07:31:14.462Z,33.58
2023-01-29T07:33:45.859Z,32.96
2023-01-29T07:36:16.236Z,32.54
2023-01-29T07:38:44.168Z,31.96
2023-01-29T07:41:12.667Z,32.28
2023-01-29T07:43:40.621Z,32.84
2023-01-29T07:46:09.041Z,32.80
2023-01-29T07:48:37.043Z,32.43
2023-01-29T07:51:04.919Z,33.00
2023-01-29T07:53:32.909Z,32.63
2023-01-29T07:56:00.713Z,32.77
2023-01-29T07:58:28.483Z,33.25
2023-01-29T08:00:56.473Z,32.59
2023-01-29T08:03:24.134Z,32.35
2023-01-29T08:05:51.925Z,32.50
2023-01-29T08:08:19.810Z,32.39
2023-01-29T08:10:47.682Z,32.45
2023-01-29T08:13:15.748Z,32.28
2023-01-29T08:15:46.982Z,32.39
2023-01-29T08:18:15.619Z,32.78
2023-01-29T08:20:43.574Z,32.60
2023-01-29T08:23:16.606Z,32.80
2023-01-29T08:25:44.803Z,32.69
2023-01-29T08:28:13.012Z,32.73
2023-01-29T08:30:41.121Z,32.93
2023-01-29T08:33:09.047Z,33.23
2023-01-29T08:35:37.266Z,32.99
2023-01-29T08:38:07.857Z,33.58
2023-01-29T08:40:35.873Z,34.57
2023-01-29T08:43:10.856Z,33.72
2023-01-29T08:45:41.786Z,33.26
2023-01-29T08:48:10.457Z,32.76
2023-01-29T08:50:38.614Z,32.91
2023-01-29T08:53:08.201Z,32.84
2023-01-29T08:55:40.895Z,32.89
2023-01-29T08:58:11.819Z,33.07
2023-01-29T09:00:39.788Z,32.40
2023-01-29T09:03:08.152Z,32.45
2023-01-29T09:05:41.589Z,32.45
2023-01-29T09:08:10.325Z,32.41
2023-01-29T09:10:38.402Z,32.47
2023-01-29T09:13:06.269Z,32.45
2023-01-29T09:15:34.199Z,32.90
2023-01-29T09:18:05.853Z,33.01
2023-01-29T09:20:34.218Z,33.39
2023-01-29T09:23:07.723Z,33.21
2023-01-29T09:25:36.407Z,33.01
2023-01-29T09:28:06.608Z,33.33
2023-01-29T09:30:38.014Z,32.86
2023-01-29T09:33:07.167Z,32.62
2023-01-29T09:35:34.960Z,32.54
2023-01-29T09:38:02.595Z,32.97
2023-01-29T09:40:47.897Z,32.10
2023-01-29T09:43:23.879Z,32.84
2023-01-29T09:46:05.323Z,33.25
2023-01-29T09:48:36.745Z,33.14
2023-01-29T09:51:15.530Z,33.34
2023-01-29T09:53:55.071Z,36.03
2023-01-29T09:56:28.887Z,36.69
2023-01-29T09:59:01.687Z,35.12
2023-01-29T10:01:38.961Z,34.12
2023-01-29T10:04:27.481Z,34.39
2023-01-29T10:07:22.929Z,35.38
2023-01-29T10:10:20.050Z,35.49
2023-01-29T10:13:11.098Z,35.64
2023-01-29T10:15:53.555Z,36.24
2023-01-29T10:18:33.636Z,35.71
2023-01-29T10:21:28.605Z,36.56
2023-01-29T10:24:22.429Z,36.67
2023-01-29T10:26:52.774Z,36.17
2023-01-29T10:29:22.363Z,33.77
2023-01-29T10:31:55.511Z,33.08
2023-01-29T10:34:45.002Z,33.25
2023-01-29T10:37:43.166Z,33.41
2023-01-29T10:40:26.267Z,33.59
2023-01-29T10:43:06.354Z,33.64
2023-01-29T10:45:49.955Z,33.14
2023-01-29T10:48:35.987Z,33.09
2023-01-29T10:51:25.900Z,33.56
2023-01-29T10:54:15.415Z,33.74
2023-01-29T10:57:11.515Z,34.18
2023-01-29T10:59:42.550Z,34.06
2023-01-29T11:02:18.185Z,34.13
2023-01-29T11:04:48.542Z,41.74
2023-01-29T11:07:20.338Z,40.84
2023-01-29T11:10:03.479Z,39.42
2023-01-29T11:12:35.069Z,38.80
2023-01-29T11:15:24.806Z,38.35
2023-01-29T11:18:07.323Z,39.80
2023-01-29T11:20:36.427Z,39.52
2023-01-29T11:23:04.904Z,38.19
2023-01-29T11:25:34.048Z,37.40
2023-01-29T11:28:03.126Z,37.70
2023-01-29T11:30:34.319Z,37.95
2023-01-29T11:33:25.082Z,37.61
2023-01-29T11:35:57.904Z,37.60
2023-01-29T11:38:28.492Z,36.77
2023-01-29T11:41:08.421Z,36.27
2023-01-29T11:43:36.510Z,36.26
2023-01-29T11:46:14.293Z,37.03
2023-01-29T11:48:50.404Z,38.76
2023-01-29T11:51:29.572Z,37.97
2023-01-29T11:54:00.903Z,39.01
2023-01-29T11:56:40.242Z,37.45
2023-01-29T11:59:37.707Z,35.91
2023-01-29T12:02:24.335Z,35.22
2023-01-29T12:04:52.379Z,35.38
2023-01-29T12:07:20.430Z,36.15
2023-01-29T12:09:59.913Z,35.76
2023-01-29T12:12:29.993Z,36.27
2023-01-29T12:15:26.935Z,35.11
2023-01-29T12:18:22.779Z,35.84
2023-01-29T12:20:56.285Z,35.29
2023-01-29T12:24:02.954Z,36.26
2023-01-29T12:26:38.688Z,35.65
2023-01-29T12:29:25.371Z,35.31
2023-01-29T12:32:16.648Z,35.92
2023-01-29T12:34:53.272Z,38.15
2023-01-29T12:37:28.833Z,38.08
2023-01-29T12:39:56.895Z,38.17
2023-01-29T12:42:25.793Z,37.13
2023-01-29T12:45:03.424Z,36.03
2023-01-29T12:47:37.406Z,36.06
2023-01-29T12:50:18.525Z,35.56
2023-01-29T12:52:53.294Z,35.88
2023-01-29T12:55:28.087Z,37.60
2023-01-29T12:58:00.587Z,35.98
2023-01-29T13:00:47.959Z,35.38
2023-01-29T13:03:58.240Z,35.40
2023-01-29T13:07:13.533Z,36.04
2023-01-29T13:10:05.205Z,35.50
2023-01-29T13:12:56.714Z,34.79
2023-01-29T13:15:52.127Z,34.19
2023-01-29T13:18:51.392Z,34.26
2023-01-29T13:21:23.800Z,34.44
2023-01-29T13:23:57.641Z,35.01
2023-01-29T13:26:31.971Z,35.14
2023-01-29T13:29:00.240Z,35.27
2023-01-29T13:31:31.864Z,35.07
2023-01-29T13:34:10.337Z,34.97
2023-01-29T13:36:43.781Z,35.43
2023-01-29T13:39:24.092Z,35.21
2023-01-29T13:41:53.147Z,35.11
2023-01-29T13:44:33.803Z,34.98
2023-01-29T13:47:06.638Z,34.68
2023-01-29T13:49:37.789Z,34.52
2023-01-29T13:52:27.279Z,34.29
2023-01-29T13:55:01.313Z,34.19
2023-01-29T13:57:44.307Z,35.15
2023-01-29T14:00:21.381Z,34.31
2023-01-29T14:02:55.307Z,35.07
2023-01-29T14:05:29.786Z,35.06
2023-01-29T14:08:06.190Z,35.42
2023-01-29T14:10:36.270Z,35.39
2023-01-29T14:13:21.290Z,35.68
2023-01-29T14:16:01.370Z,35.32
2023-01-29T14:18:30.936Z,36.41
2023-01-29T14:21:22.218Z,37.79
2023-01-29T14:23:59.430Z,38.41
2023-01-29T14:26:46.241Z,37.48
2023-01-29T14:29:25.450Z,37.11
2023-01-29T14:32:01.018Z,36.71
2023-01-29T14:34:42.839Z,36.53
2023-01-29T14:37:17.112Z,36.66
2023-01-29T14:39:44.800Z,36.22
2023-01-29T14:42:39.093Z,36.25
2023-01-29T14:45:32.112Z,36.57
2023-01-29T14:48:20.256Z,36.47
2023-01-29T14:50:53.363Z,36.35
2023-01-29T14:53:49.310Z,35.11
2023-01-29T14:56:23.104Z,35.43
2023-01-29T14:58:56.259Z,36.05
2023-01-29T15:01:55.792Z,36.34
2023-01-29T15:04:31.114Z,36.20
2023-01-29T15:07:11.285Z,36.31
2023-01-29T15:10:22.502Z,35.69
2023-01-29T15:13:18.915Z,35.80
2023-01-29T15:15:50.732Z,36.15
2023-01-29T15:18:40.345Z,35.77
2023-01-29T15:21:14.754Z,38.06
2023-01-29T15:23:43.448Z,38.63
2023-01-29T15:26:17.623Z,38.39
2023-01-29T15:29:02.169Z,38.55
2023-01-29T15:31:32.471Z,37.58
2023-01-29T15:34:06.262Z,37.20
2023-01-29T15:36:34.284Z,36.95
2023-01-29T15:39:24.230Z,37.72
2023-01-29T15:42:11.570Z,36.40
2023-01-29T15:44:45.009Z,37.11
2023-01-29T15:47:14.765Z,37.13
2023-01-29T15:49:43.502Z,36.73
2023-01-29T15:52:21.629Z,36.59
2023-01-29T15:54:49.896Z,37.32
2023-01-29T15:57:26.470Z,36.67
2023-01-29T15:59:56.886Z,37.04
2023-01-29T16:02:38.567Z,37.41
2023-01-29T16:05:13.825Z,36.97
2023-01-29T16:07:43.180Z,37.00
2023-01-29T16:10:21.495Z,37.61
2023-01-29T16:12:52.260Z,37.83
2023-01-29T16:15:37.310Z,37.76
2023-01-29T16:18:22.344Z,37.40
2023-01-29T16:21:01.063Z,36.72
2023-01-29T16:23:33.014Z,36.52
2023-01-29T16:26:08.627Z,36.84
2023-01-29T16:28:43.736Z,35.97
2023-01-29T16:31:14.127Z,36.16
2023-01-29T16:33:45.551Z,35.56
2023-01-29T16:36:25.199Z,35.83
2023-01-29T16:39:00.795Z,35.98
2023-01-29T16:41:36.160Z,35.44
2023-01-29T16:44:16.253Z,35.15
2023-01-29T16:46:49.341Z,35.35
2023-01-29T16:49:26.225Z,35.84
2023-01-29T16:51:56.890Z,35.31
2023-01-29T16:54:26.649Z,35.63
2023-01-29T16:57:02.908Z,35.59
2023-01-29T16:59:38.602Z,34.72
2023-01-29T17:02:22.399Z,34.72
2023-01-29T17:04:54.222Z,35.68
2023-01-29T17:07:23.895Z,36.30
2023-01-29T17:09:56.193Z,35.59
2023-01-29T17:12:27.459Z,35.85
2023-01-29T17:15:25.720Z,34.66
2023-01-29T17:17:53.437Z,35.78
2023-01-29T17:20:21.833Z,35.50
2023-01-29T17:22:50.636Z,35.49
2023-01-29T17:25:19.348Z,34.72
2023-01-29T17:27:52.797Z,35.14
2023-01-29T17:30:28.647Z,34.66
2023-01-29T17:32:58.933Z,34.62
2023-01-29T17:35:26.832Z,34.52
2023-01-29T17:37:54.783Z,34.64
2023-01-29T17:40:33.703Z,34.13
2023-01-29T17:43:02.156Z,35.18
2023-01-29T17:45:31.643Z,35.19
2023-01-29T17:47:59.496Z,34.87
2023-01-29T17:50:30.633Z,38.37
2023-01-29T17:52:58.772Z,37.01
2023-01-29T17:55:26.547Z,40.25
2023-01-29T17:57:54.447Z,38.93
2023-01-29T18:00:24.533Z,37.76
2023-01-29T18:02:52.397Z,37.77
2023-01-29T18:05:20.640Z,38.08
2023-01-29T18:07:48.722Z,37.19
2023-01-29T18:10:19.441Z,36.62
2023-01-29T18:12:48.372Z,35.99
2023-01-29T18:15:17.359Z,36.78
2023-01-29T18:17:45.707Z,36.41
2023-01-29T18:20:18.984Z,36.28
2023-01-29T18:22:48.024Z,36.30
2023-01-29T18:25:16.695Z,36.42
2023-01-29T18:27:45.554Z,36.92
2023-01-29T18:30:14.174Z,36.49
2023-01-29T18:32:41.908Z,35.74
2023-01-29T18:35:09.938Z,36.34
2023-01-29T18:37:37.824Z,36.41
2023-01-29T18:40:07.317Z,36.28
2023-01-29T18:42:36.233Z,36.38
2023-01-29T18:45:04.250Z,36.77
2023-01-29T18:47:32.112Z,37.06
2023-01-29T18:50:00.706Z,37.21
2023-01-29T18:52:28.413Z,37.33
2023-01-29T18:54:56.139Z,37.53
2023-01-29T18:58:26.784Z,37.17
2023-01-29T19:00:12.421Z,37.14
2023-01-29T19:02:45.552Z,37.09
2023-01-29T19:05:13.746Z,37.30
2023-01-29T19:07:41.570Z,37.93
2023-01-29T19:10:12.921Z,37.63
2023-01-29T19:12:47.021Z,38.82
2023-01-29T19:15:17.457Z,38.22
2023-01-29T19:17:46.979Z,38.25
2023-01-29T19:20:15.913Z,38.56
2023-01-29T19:22:44.288Z,38.52
2023-01-29T19:25:12.885Z,38.46
2023-01-29T19:27:40.867Z,37.97
2023-01-29T19:30:10.515Z,38.43
2023-01-29T19:32:40.657Z,38.35
2023-01-29T19:35:14.072Z,38.33
2023-01-29T19:37:41.973Z,38.27
2023-01-29T19:40:10.364Z,38.14
2023-01-29T19:42:38.779Z,38.46
2023-01-29T19:45:07.305Z,38.46
2023-01-29T19:47:39.950Z,37.74
2023-01-29T19:50:11.297Z,38.55
2023-01-29T19:52:55.822Z,38.92
2023-01-29T19:55:23.487Z,37.96
2023-01-29T19:58:03.181Z,37.60
2023-01-29T20:00:32.492Z,39.88
2023-01-29T20:03:00.390Z,40.04
2023-01-29T20:05:30.496Z,39.37
2023-01-29T20:07:58.655Z,39.35
2023-01-29T20:10:27.918Z,38.58
2023-01-29T20:12:56.109Z,38.98
2023-01-29T20:15:23.935Z,37.61
2023-01-29T20:17:51.811Z,36.70
2023-01-29T20:20:20.166Z,36.42
2023-01-29T20:22:48.164Z,36.39
2023-01-29T20:25:16.683Z,36.16
2023-01-29T20:27:44.570Z,35.84
2023-01-29T20:30:12.767Z,35.59
2023-01-29T20:32:40.924Z,35.74
2023-01-29T20:35:09.566Z,36.27
2023-01-29T20:37:39.315Z,35.77
2023-01-29T20:40:09.791Z,34.11
2023-01-29T20:42:38.516Z,34.16
2023-01-29T20:45:07.131Z,34.87
2023-01-29T20:47:37.752Z,34.86
2023-01-29T20:50:08.803Z,34.87
2023-01-29T20:52:37.520Z,34.37
2023-01-29T20:55:08.959Z,34.79
2023-01-29T20:57:40.745Z,34.97
2023-01-29T21:00:09.468Z,34.41
2023-01-29T21:02:37.930Z,33.65
2023-01-29T21:05:06.969Z,33.74
2023-01-29T21:07:36.243Z,33.96
2023-01-29T21:10:05.475Z,34.46
2023-01-29T21:12:34.565Z,33.47
2023-01-29T21:15:02.493Z,34.23
2023-01-29T21:17:33.187Z,32.76
2023-01-29T21:20:04.451Z,32.98
2023-01-29T21:22:35.110Z,33.29
2023-01-29T21:25:04.857Z,32.88
2023-01-29T21:27:34.557Z,32.73
2023-01-29T21:30:06.000Z,32.68
2023-01-29T21:32:34.235Z,32.29
2023-01-29T21:35:01.950Z,34.73
2023-01-29T21:37:29.833Z,34.74
2023-01-29T21:39:57.679Z,34.38
2023-01-29T21:42:43.769Z,34.71
2023-01-29T21:45:11.583Z,34.81
2023-01-29T21:47:41.607Z,34.42
2023-01-29T21:50:09.987Z,34.44
2023-01-29T21:52:38.312Z,35.05
2023-01-29T21:55:06.720Z,36.90
2023-01-29T21:57:34.519Z,35.26
2023-01-29T22:00:03.153Z,34.79
2023-01-29T22:02:33.772Z,34.99
2023-01-29T22:05:20.074Z,35.22
2023-01-29T22:07:49.593Z,34.33
2023-01-29T22:10:19.897Z,34.07
2023-01-29T22:12:48.774Z,34.28
2023-01-29T22:15:21.079Z,35.23
2023-01-29T22:17:50.148Z,33.82
2023-01-29T22:20:19.302Z,33.37
2023-01-29T22:22:48.066Z,32.75
2023-01-29T22:25:20.170Z,32.30
2023-01-29T22:27:49.118Z,32.16
2023-01-29T22:30:18.459Z,33.25
2023-01-29T22:32:49.450Z,33.99
2023-01-29T22:35:18.619Z,33.24
2023-01-29T22:37:46.719Z,31.96
2023-01-29T22:40:15.130Z,32.00
2023-01-29T22:42:43.300Z,32.61
2023-01-29T22:45:12.628Z,32.41
2023-01-29T22:47:40.755Z,32.11
2023-01-29T22:50:09.141Z,32.69
2023-01-29T22:52:42.868Z,32.24
2023-01-29T22:55:12.557Z,32.35
2023-01-29T22:57:40.537Z,31.50
2023-01-29T23:00:11.202Z,31.35
2023-01-29T23:02:39.231Z,31.51
2023-01-29T23:05:07.902Z,31.51
2023-01-29T23:07:35.754Z,31.28
2023-01-29T23:10:04.488Z,32.17
2023-01-29T23:12:32.383Z,32.61
2023-01-29T23:15:00.164Z,31.69
2023-01-29T23:17:28.004Z,31.53
2023-01-29T23:19:55.891Z,31.70
2023-01-29T23:22:23.744Z,32.02
2023-01-29T23:24:52.238Z,31.02
2023-01-29T23:27:20.615Z,31.03
2023-01-29T23:29:49.442Z,31.50
2023-01-29T23:32:20.729Z,32.21
2023-01-29T23:34:49.530Z,31.39
2023-01-29T23:37:17.349Z,30.64
2023-01-29T23:39:45.262Z,31.18
2023-01-29T23:42:13.068Z,31.94
2023-01-29T23:44:42.620Z,30.97
2023-01-29T23:47:11.245Z,30.58
2023-01-29T23:49:39.415Z,30.11
2023-01-29T23:52:07.979Z,30.48
2023-01-29T23:54:35.697Z,29.71
2023-01-29T23:57:03.574Z,29.70
2023-01-29T23:59:31.451Z,29.79
